createdAt,value
2023-05-12T00:02:54.874Z,100507.13
2023-05-12T00:06:00.406Z,100506.50
2023-05-12T00:09:02.651Z,100503.56
2023-05-12T00:12:05.503Z,100508.97
2023-05-12T00:15:07.970Z,100502.91
2023-05-12T00:18:10.587Z,100509.78
2023-05-12T00:21:12.878Z,100497.56
2023-05-12T00:24:15.510Z,100501.00
2023-05-12T00:27:18.898Z,100501.91
2023-05-12T00:30:21.787Z,100501.06
2023-05-12T00:33:24.102Z,100495.94
2023-05-12T00:36:26.718Z,100495.06
2023-05-12T00:39:29.923Z,100496.56
2023-05-12T00:42:33.868Z,100492.06
2023-05-12T00:45:36.761Z,100499.16
2023-05-12T00:48:39.477Z,100492.28
2023-05-12T00:51:42.718Z,100494.97
2023-05-12T00:54:45.699Z,100486.22
2023-05-12T00:57:47.956Z,100494.81
2023-05-12T01:00:51.022Z,100490.53
2023-05-12T01:03:53.878Z,100486.88
2023-05-12T01:07:17.899Z,100490.47
2023-05-12T01:10:21.642Z,100485.25
2023-05-12T01:13:24.523Z,100487.72
2023-05-12T01:16:31.444Z,100482.59
2023-05-12T01:19:41.380Z,100492.84
2023-05-12T01:22:44.201Z,100484.28
2023-05-12T01:25:49.237Z,100485.53
2023-05-12T01:28:52.026Z,100491.66
2023-05-12T01:31:55.332Z,100496.97
2023-05-12T01:34:57.697Z,100484.19
2023-05-12T01:38:00.598Z,100484.75
2023-05-12T01:41:03.052Z,100487.66
2023-05-12T01:44:06.927Z,100488.03
2023-05-12T01:47:11.233Z,100485.59
2023-05-12T01:50:14.260Z,100492.81
2023-05-12T01:53:16.700Z,100491.88
2023-05-12T01:56:20.036Z,100498.69
2023-05-12T01:59:22.437Z,100491.09
2023-05-12T02:02:25.680Z,100501.69
2023-05-12T02:05:28.454Z,100508.53
2023-05-12T02:08:31.076Z,100505.03
2023-05-12T02:11:33.727Z,100508.47
2023-05-12T02:14:36.071Z,100508.53
2023-05-12T02:17:38.993Z,100512.84
2023-05-12T02:20:41.487Z,100505.13
2023-05-12T02:23:44.476Z,100508.81
2023-05-12T02:26:47.890Z,100509.72
2023-05-12T02:29:50.557Z,100520.41
2023-05-12T02:32:53.065Z,100513.56
2023-05-12T02:35:56.141Z,100518.81
2023-05-12T02:38:59.000Z,100514.59
2023-05-12T02:42:01.695Z,100511.22
2023-05-12T02:45:04.124Z,100514.66
2023-05-12T02:48:07.748Z,100520.75
2023-05-12T02:51:10.218Z,100514.72
2023-05-12T02:54:12.798Z,100522.66
2023-05-12T02:57:15.135Z,100522.53
2023-05-12T03:00:17.946Z,100527.16
2023-05-12T03:03:20.551Z,100524.00
2023-05-12T03:06:23.364Z,100528.47
2023-05-12T03:09:25.656Z,100526.97
2023-05-12T03:12:31.436Z,100524.06
2023-05-12T03:15:33.785Z,100524.97
2023-05-12T03:18:36.535Z,100520.78
2023-05-12T03:21:38.961Z,100525.28
2023-05-12T03:24:41.592Z,100520.88
2023-05-12T03:27:43.981Z,100529.78
2023-05-12T03:30:46.651Z,100531.59
2023-05-12T03:33:48.982Z,100534.09
2023-05-12T03:36:51.741Z,100533.28
2023-05-12T03:39:56.138Z,100530.03
2023-05-12T03:42:58.978Z,100533.28
2023-05-12T03:46:01.904Z,100535.06
2023-05-12T03:49:05.559Z,100535.22
2023-05-12T03:52:07.885Z,100536.84
2023-05-12T03:55:11.055Z,100537.59
2023-05-12T03:58:13.387Z,100541.94
2023-05-12T04:01:15.984Z,100535.84
2023-05-12T04:04:19.171Z,100540.91
2023-05-12T04:07:21.676Z,100537.19
2023-05-12T04:10:24.267Z,100537.19
2023-05-12T04:13:27.253Z,100548.66
2023-05-12T04:16:29.897Z,100552.00
2023-05-12T04:19:34.230Z,100558.06
2023-05-12T04:22:36.904Z,100556.22
2023-05-12T04:25:42.468Z,100560.31
2023-05-12T04:28:45.145Z,100555.72
2023-05-12T04:31:47.559Z,100559.91
2023-05-12T04:34:51.629Z,100562.34
2023-05-12T04:37:54.181Z,100557.84
2023-05-12T04:40:59.162Z,100561.75
2023-05-12T04:44:01.632Z,100560.56
2023-05-12T04:47:04.342Z,100552.03
2023-05-12T04:50:06.897Z,100554.56
2023-05-12T04:53:10.950Z,100556.03
2023-05-12T04:56:14.105Z,100548.78
2023-05-12T04:59:16.774Z,100560.78
2023-05-12T05:02:20.098Z,100564.72
2023-05-12T05:05:23.031Z,100558.16
2023-05-12T05:08:26.148Z,100562.28
2023-05-12T05:11:28.777Z,100563.84
2023-05-12T05:14:33.336Z,100567.75
2023-05-12T05:17:36.460Z,100565.94
2023-05-12T05:20:40.936Z,100568.66
2023-05-12T05:23:46.545Z,100567.75
2023-05-12T05:26:49.975Z,100566.97
2023-05-12T05:29:53.217Z,100569.13
2023-05-12T05:32:55.814Z,100566.50
2023-05-12T05:35:58.909Z,100569.13
2023-05-12T05:39:01.745Z,100574.88
2023-05-12T05:42:04.389Z,100566.84
2023-05-12T05:45:07.103Z,100574.59
2023-05-12T05:48:10.012Z,100571.38
2023-05-12T05:51:13.499Z,100573.09
2023-05-12T05:54:16.589Z,100592.13
2023-05-12T05:57:19.380Z,100591.22
2023-05-12T06:00:22.429Z,100587.25
2023-05-12T06:03:26.007Z,100582.53
2023-05-12T06:06:28.901Z,100589.37
2023-05-12T06:09:32.458Z,100591.28
2023-05-12T06:12:34.853Z,100595.94
2023-05-12T06:15:37.506Z,100594.00
2023-05-12T06:18:40.235Z,100598.06
2023-05-12T06:21:43.645Z,100594.09
2023-05-12T06:24:45.944Z,100597.03
2023-05-12T06:27:50.561Z,100595.72
2023-05-12T06:30:52.902Z,100589.09
2023-05-12T06:33:55.504Z,100595.16
2023-05-12T06:36:57.894Z,100592.81
2023-05-12T06:40:00.604Z,100593.91
2023-05-12T06:43:02.937Z,100597.41
2023-05-12T06:46:06.934Z,100596.16
2023-05-12T06:49:10.431Z,100590.84
2023-05-12T06:52:13.076Z,100599.47
2023-05-12T06:55:20.021Z,100591.38
2023-05-12T06:58:22.934Z,100592.87
2023-05-12T07:01:25.310Z,100587.66
2023-05-12T07:04:28.042Z,100587.59
2023-05-12T07:07:30.376Z,100602.03
2023-05-12T07:10:33.277Z,100595.56
2023-05-12T07:13:35.563Z,100599.44
2023-05-12T07:16:38.288Z,100596.81
2023-05-12T07:19:40.694Z,100595.25
2023-05-12T07:22:43.273Z,100590.19
2023-05-12T07:25:45.612Z,100596.31
2023-05-12T07:28:48.304Z,100591.69
2023-05-12T07:31:50.980Z,100594.31
2023-05-12T07:34:53.663Z,100598.56
2023-05-12T07:37:55.946Z,100593.06
2023-05-12T07:40:59.167Z,100597.53
2023-05-12T07:44:02.328Z,100596.09
2023-05-12T07:47:05.759Z,100600.72
2023-05-12T07:50:08.386Z,100603.91
2023-05-12T07:53:11.253Z,100598.88
2023-05-12T07:56:13.593Z,100600.56
2023-05-12T07:59:16.529Z,100609.09
2023-05-12T08:02:20.647Z,100606.59
2023-05-12T08:05:23.444Z,100612.72
2023-05-12T08:08:25.771Z,100608.00
2023-05-12T08:11:28.454Z,100614.06
2023-05-12T08:14:30.759Z,100618.94
2023-05-12T08:17:33.420Z,100612.72
2023-05-12T08:20:36.122Z,100621.31
2023-05-12T08:23:38.737Z,100618.03
2023-05-12T08:26:41.040Z,100620.81
2023-05-12T08:29:43.646Z,100620.53
2023-05-12T08:32:46.297Z,100619.69
2023-05-12T08:35:48.944Z,100628.00
2023-05-12T08:38:51.335Z,100628.25
2023-05-12T08:42:03.685Z,100625.06
2023-05-12T08:45:07.064Z,100627.47
2023-05-12T08:48:10.736Z,100633.81
2023-05-12T08:51:14.211Z,100642.09
2023-05-12T08:54:18.964Z,100633.78
2023-05-12T08:57:21.871Z,100632.78
2023-05-12T09:00:25.880Z,100633.13
2023-05-12T09:03:31.204Z,100634.72
2023-05-12T09:06:34.127Z,100651.44
2023-05-12T09:09:38.078Z,100644.37
2023-05-12T09:12:41.462Z,100649.97
2023-05-12T09:15:45.633Z,100653.41
2023-05-12T09:18:55.425Z,100651.50
2023-05-12T09:21:58.971Z,100660.41
2023-05-12T09:25:01.854Z,100656.44
2023-05-12T09:28:04.269Z,100651.56
2023-05-12T09:31:17.044Z,100664.50
2023-05-12T09:34:20.326Z,100664.94
2023-05-12T09:37:29.908Z,100673.81
2023-05-12T09:40:32.162Z,100677.63
2023-05-12T09:43:35.357Z,100677.53
2023-05-12T09:46:39.773Z,100676.38
2023-05-12T09:49:46.153Z,100677.16
2023-05-12T09:52:50.319Z,100685.13
2023-05-12T09:55:53.007Z,100677.53
2023-05-12T09:58:57.090Z,100680.56
2023-05-12T10:02:03.721Z,100685.28
2023-05-12T10:05:07.252Z,100679.53
2023-05-12T10:08:11.060Z,100685.31
2023-05-12T10:11:14.060Z,100681.37
2023-05-12T10:14:16.987Z,100689.13
2023-05-12T10:17:20.402Z,100691.22
2023-05-12T10:20:23.077Z,100690.53
2023-05-12T10:23:26.781Z,100694.13
2023-05-12T10:26:29.732Z,100691.94
2023-05-12T10:29:33.228Z,100695.91
2023-05-12T10:32:35.762Z,100701.53
2023-05-12T10:35:39.515Z,100701.47
2023-05-12T10:38:41.767Z,100703.56
2023-05-12T10:41:44.444Z,100699.19
2023-05-12T10:44:51.182Z,100698.53
2023-05-12T10:48:04.606Z,100691.41
2023-05-12T10:51:10.697Z,100693.53
2023-05-12T10:54:21.163Z,100693.78
2023-05-12T10:57:23.928Z,100686.50
2023-05-12T11:00:28.942Z,100691.78
2023-05-12T11:03:34.795Z,100693.31
2023-05-12T11:06:40.423Z,100693.47
2023-05-12T11:09:56.764Z,100705.63
2023-05-12T11:13:00.893Z,100699.31
2023-05-12T11:16:03.328Z,100700.22
2023-05-12T11:19:06.190Z,100705.03
2023-05-12T11:22:09.449Z,100699.13
2023-05-12T11:25:12.526Z,100702.91
2023-05-12T11:28:14.887Z,100710.25
2023-05-12T11:31:19.162Z,100700.59
2023-05-12T11:34:22.605Z,100701.75
2023-05-12T11:37:25.452Z,100695.19
2023-05-12T11:40:27.768Z,100689.34
2023-05-12T11:43:30.436Z,100698.03
2023-05-12T11:46:33.959Z,100695.78
2023-05-12T11:49:46.157Z,100689.56
2023-05-12T11:52:50.981Z,100690.69
2023-05-12T11:55:54.816Z,100687.63
2023-05-12T11:58:58.246Z,100686.47
2023-05-12T12:02:04.284Z,100688.28
2023-05-12T12:05:16.637Z,100690.50
2023-05-12T12:08:19.099Z,100686.25
2023-05-12T12:11:22.632Z,100692.84
2023-05-12T12:14:24.984Z,100699.44
2023-05-12T12:17:30.915Z,100701.63
2023-05-12T12:20:33.360Z,100685.94
2023-05-12T12:23:49.910Z,100699.00
2023-05-12T12:26:53.554Z,100698.31
2023-05-12T12:29:56.249Z,100699.88
2023-05-12T12:32:58.714Z,100708.91
2023-05-12T12:36:01.548Z,100711.44
2023-05-12T12:39:04.452Z,100716.91
2023-05-12T12:42:07.129Z,100711.44
2023-05-12T12:45:10.098Z,100710.50
2023-05-12T12:48:12.974Z,100711.50
2023-05-12T12:51:15.500Z,100713.72
2023-05-12T12:54:18.099Z,100703.97
2023-05-12T12:57:22.157Z,100710.31
2023-05-12T13:00:25.247Z,100707.78
2023-05-12T13:03:27.589Z,100715.53
2023-05-12T13:06:30.309Z,100713.41
2023-05-12T13:09:32.692Z,100709.19
2023-05-12T13:12:35.779Z,100704.72
2023-05-12T13:15:38.624Z,100707.44
2023-05-12T13:18:41.434Z,100703.16
2023-05-12T13:21:43.853Z,100706.72
2023-05-12T13:24:46.585Z,100698.06
2023-05-12T13:27:48.891Z,100700.66
2023-05-12T13:30:52.523Z,100698.91
2023-05-12T13:33:54.827Z,100703.94
2023-05-12T13:36:57.443Z,100698.47
2023-05-12T13:39:59.897Z,100699.84
2023-05-12T13:43:02.720Z,100702.03
2023-05-12T13:46:05.185Z,100703.16
2023-05-12T13:49:07.928Z,100705.69
2023-05-12T13:52:10.390Z,100707.75
2023-05-12T13:55:20.492Z,100717.88
2023-05-12T13:58:23.658Z,100718.34
2023-05-12T14:01:26.383Z,100716.59
2023-05-12T14:04:29.086Z,100717.72
2023-05-12T14:07:31.523Z,100710.19
2023-05-12T14:10:35.442Z,100712.69
2023-05-12T14:13:37.796Z,100719.84
2023-05-12T14:16:40.978Z,100716.09
2023-05-12T14:19:43.381Z,100717.72
2023-05-12T14:22:46.026Z,100720.47
2023-05-12T14:25:48.345Z,100726.00
2023-05-12T14:28:50.935Z,100725.56
2023-05-12T14:31:53.347Z,100739.78
2023-05-12T14:34:55.923Z,100731.28
2023-05-12T14:37:58.306Z,100733.03
2023-05-12T14:41:00.912Z,100736.38
2023-05-12T14:44:03.259Z,100737.44
2023-05-12T14:47:07.515Z,100747.06
2023-05-12T14:50:11.392Z,100743.75
2023-05-12T14:53:14.607Z,100747.16
2023-05-12T14:56:16.988Z,100750.69
2023-05-12T14:59:19.616Z,100750.84
2023-05-12T15:02:22.129Z,100750.16
2023-05-12T15:05:36.165Z,100757.12
2023-05-12T15:08:46.987Z,100750.25
2023-05-12T15:11:49.995Z,100755.37
2023-05-12T15:14:52.561Z,100750.97
2023-05-12T15:17:55.148Z,100758.72
2023-05-12T15:20:57.596Z,100763.84
2023-05-12T15:24:00.513Z,100758.84
2023-05-12T15:27:02.919Z,100766.44
2023-05-12T15:30:05.823Z,100768.25
2023-05-12T15:33:09.152Z,100763.19
2023-05-12T15:36:13.431Z,100765.72
2023-05-12T15:39:16.922Z,100766.31
2023-05-12T15:42:26.208Z,100767.91
2023-05-12T15:45:37.468Z,100764.22
2023-05-12T15:48:40.097Z,100764.50
2023-05-12T15:51:42.370Z,100769.72
2023-05-12T15:54:44.944Z,100765.13
2023-05-12T15:57:47.298Z,100768.56
2023-05-12T16:00:49.912Z,100766.97
2023-05-12T16:03:53.714Z,100759.09
2023-05-12T16:06:57.099Z,100767.03
2023-05-12T16:09:59.738Z,100763.41
2023-05-12T16:13:02.118Z,100763.56
2023-05-12T16:16:05.495Z,100768.72
2023-05-12T16:19:08.104Z,100769.63
2023-05-12T16:22:10.770Z,100779.09
2023-05-12T16:25:13.040Z,100769.50
2023-05-12T16:28:16.047Z,100767.91
2023-05-12T16:31:19.824Z,100774.16
2023-05-12T16:34:22.572Z,100776.00
2023-05-12T16:37:26.386Z,100770.19
2023-05-12T16:40:29.331Z,100778.72
2023-05-12T16:43:31.710Z,100777.25
2023-05-12T16:46:34.528Z,100779.16
2023-05-12T16:49:36.928Z,100788.63
2023-05-12T16:52:39.516Z,100789.44
2023-05-12T16:55:41.747Z,100786.81
2023-05-12T16:58:44.376Z,100790.34
2023-05-12T17:01:47.153Z,100788.81
2023-05-12T17:04:49.746Z,100786.31
2023-05-12T17:07:52.403Z,100789.81
2023-05-12T17:10:54.995Z,100787.28
2023-05-12T17:13:57.418Z,100789.09
2023-05-12T17:17:00.493Z,100789.03
2023-05-12T17:20:03.782Z,100786.50
2023-05-12T17:23:06.608Z,100797.03
2023-05-12T17:26:08.890Z,100794.75
2023-05-12T17:29:11.891Z,100793.84
2023-05-12T17:32:14.174Z,100804.22
2023-05-12T17:35:16.745Z,100804.09
2023-05-12T17:38:20.219Z,100809.31
2023-05-12T17:41:22.789Z,100808.56
2023-05-12T17:44:25.226Z,100812.72
2023-05-12T17:47:28.139Z,100819.84
2023-05-12T17:50:30.416Z,100819.16
2023-05-12T17:53:34.091Z,100824.31
2023-05-12T17:56:36.650Z,100832.25
2023-05-12T17:59:39.271Z,100833.28
2023-05-12T18:02:41.908Z,100836.75
2023-05-12T18:05:44.689Z,100829.75
2023-05-12T18:08:47.194Z,100829.81
2023-05-12T18:11:49.973Z,100832.53
2023-05-12T18:14:53.233Z,100836.87
2023-05-12T18:17:57.891Z,100831.53
2023-05-12T18:21:00.708Z,100828.28
2023-05-12T18:24:03.463Z,100830.94
2023-05-12T18:27:06.617Z,100829.28
2023-05-12T18:30:09.541Z,100822.44
2023-05-12T18:33:11.980Z,100825.91
2023-05-12T18:36:15.144Z,100826.78
2023-05-12T18:39:18.319Z,100831.88
2023-05-12T18:42:20.988Z,100827.59
2023-05-12T18:45:23.496Z,100834.47
2023-05-12T18:48:26.261Z,100838.78
2023-05-12T18:51:28.833Z,100834.41
2023-05-12T18:54:31.701Z,100835.38
2023-05-12T18:57:34.107Z,100841.28
2023-05-12T19:00:36.705Z,100844.69
2023-05-12T19:03:39.037Z,100848.22
2023-05-12T19:06:42.635Z,100852.69
2023-05-12T19:09:45.183Z,100850.87
2023-05-12T19:12:51.130Z,100848.28
2023-05-12T19:15:53.504Z,100853.53
2023-05-12T19:18:56.468Z,100857.84
2023-05-12T19:21:58.831Z,100863.87
2023-05-12T19:25:02.112Z,100865.66
2023-05-12T19:28:04.864Z,100869.03
2023-05-12T19:31:07.591Z,100870.75
2023-05-12T19:34:10.049Z,100884.59
2023-05-12T19:37:12.668Z,100881.25
2023-05-12T19:40:15.131Z,100885.53
2023-05-12T19:43:17.785Z,100874.09
2023-05-12T19:46:20.452Z,100871.63
2023-05-12T19:49:23.088Z,100879.47
2023-05-12T19:52:25.520Z,100882.06
2023-05-12T19:55:28.173Z,100887.28
2023-05-12T19:58:30.507Z,100881.03
2023-05-12T20:01:33.135Z,100891.56
2023-05-12T20:04:35.837Z,100887.91
2023-05-12T20:07:39.049Z,100881.91
2023-05-12T20:10:41.861Z,100883.63
2023-05-12T20:13:44.342Z,100889.75
2023-05-12T20:16:47.282Z,100886.16
2023-05-12T20:19:49.612Z,100883.56
2023-05-12T20:22:52.358Z,100879.12
2023-05-12T20:25:54.745Z,100882.50
2023-05-12T20:28:57.399Z,100874.59
2023-05-12T20:31:59.738Z,100874.72
2023-05-12T20:35:03.349Z,100872.13
2023-05-12T20:38:05.795Z,100878.25
2023-05-12T20:41:08.684Z,100882.59
2023-05-12T20:44:11.000Z,100883.50
2023-05-12T20:47:13.950Z,100875.75
2023-05-12T20:50:17.023Z,100878.25
2023-05-12T20:53:19.658Z,100880.91
2023-05-12T20:56:26.505Z,100880.91
2023-05-12T20:59:29.100Z,100879.06
2023-05-12T21:02:31.654Z,100882.41
2023-05-12T21:05:34.291Z,100887.41
2023-05-12T21:08:36.618Z,100878.88
2023-05-12T21:11:39.250Z,100884.13
2023-05-12T21:14:42.233Z,100884.19
2023-05-12T21:17:44.957Z,100884.06
2023-05-12T21:20:47.343Z,100883.22
2023-05-12T21:23:50.015Z,100885.88
2023-05-12T21:26:52.309Z,100882.41
2023-05-12T21:29:54.946Z,100890.87
2023-05-12T21:32:57.326Z,100892.56
2023-05-12T21:35:59.912Z,100893.41
2023-05-12T21:39:02.345Z,100896.72
2023-05-12T21:42:05.144Z,100897.72
2023-05-12T21:45:07.798Z,100896.72
2023-05-12T21:48:10.501Z,100900.16
2023-05-12T21:51:12.905Z,100897.47
2023-05-12T21:54:15.531Z,100895.78
2023-05-12T21:57:18.103Z,100886.97
2023-05-12T22:00:21.698Z,100895.53
2023-05-12T22:03:25.463Z,100891.31
2023-05-12T22:06:27.849Z,100886.91
2023-05-12T22:09:31.309Z,100887.78
2023-05-12T22:12:33.816Z,100887.91
2023-05-12T22:15:36.458Z,100886.97
2023-05-12T22:18:38.787Z,100886.06
2023-05-12T22:21:41.379Z,100884.31
2023-05-12T22:24:43.873Z,100886.06
2023-05-12T22:27:46.520Z,100883.50
2023-05-12T22:30:48.810Z,100887.78
2023-05-12T22:33:51.417Z,100882.66
2023-05-12T22:36:53.665Z,100885.97
2023-05-12T22:39:56.184Z,100886.91
2023-05-12T22:42:58.607Z,100881.59
2023-05-12T22:46:01.332Z,100886.81
2023-05-12T22:49:03.607Z,100876.41
2023-05-12T22:52:06.563Z,100883.31
2023-05-12T22:55:09.161Z,100879.09
2023-05-12T22:58:11.916Z,100885.13
2023-05-12T23:01:14.331Z,100875.69
2023-05-12T23:04:17.099Z,100878.28
2023-05-12T23:07:19.502Z,100871.28
2023-05-12T23:10:22.318Z,100869.56
2023-05-12T23:13:24.760Z,100868.69
2023-05-12T23:16:27.444Z,100865.28
2023-05-12T23:19:29.750Z,100867.03
2023-05-12T23:22:32.357Z,100859.97
2023-05-12T23:25:35.367Z,100863.50
2023-05-12T23:28:37.979Z,100852.16
2023-05-12T23:31:40.268Z,100853.09
2023-05-12T23:34:42.922Z,100859.16
2023-05-12T23:37:45.277Z,100845.34
2023-05-12T23:40:47.827Z,100847.06
2023-05-12T23:43:50.106Z,100861.03
2023-05-12T23:46:52.669Z,100848.16
2023-05-12T23:49:55.000Z,100848.00
2023-05-12T23:52:57.703Z,100853.94
2023-05-12T23:56:00.058Z,100847.16
2023-05-12T23:59:02.814Z,100855.88
